Max Strength — 9HA4087 — position and weather

sailwx.info

Track history (hours):
 
Tides and Currents Weather Stations Pressure Air Temp Water Temp Dewpoint Dewpoint Depression Visibility Wind Speed Wind Dir Waves Ship Positions

Max Strength

Last reported at 2017-Nov-19 14:01 UTC. Time now 2017-Nov-20 02:21 UTC.
Position N 37°17' E 023°39'.

Length 127 m; draft 6 m.

Type: Ship. MMSI: 249033000.

Date/timePositionNaut miles runAvg speedWind from/ knotsBaromVisibWave heightAir tempDewpointWater temp
2017-Nov-19 14:01N 37°17' E 023°39'013.5
2017-Nov-19 14:00N 37°17' E 023°39'812.9
2017-Nov-19 13:23N 37°25' E 023°40'612.7
2017-Nov-19 12:53N 37°31' E 023°41'513.0
2017-Nov-19 12:28N 37°37' E 023°42'612.4
2017-Nov-19 12:00N 37°42' E 023°41'612.9
2017-Nov-19 11:30N 37°48' E 023°37'612.7
2017-Nov-19 11:00N 37°54' E 023°37'3 5.9
2017-Nov-19 10:30N 37°57' E 023°35'0 0.4
2017-Nov-19 09:56N 37°57' E 023°35'0 0.0
2017-Nov-19 09:26N 37°57' E 023°35'0 0.0
2017-Nov-19 08:56N 37°57' E 023°35'0 0.0
2017-Nov-19 08:26N 37°57' E 023°35'0 0.0
2017-Nov-19 07:56N 37°57' E 023°35'0 0.0
2017-Nov-19 07:26N 37°57' E 023°35'0 0.0
2017-Nov-19 06:56N 37°57' E 023°35'0 0.0
2017-Nov-19 06:26N 37°57' E 023°35'0 0.0
2017-Nov-19 05:56N 37°57' E 023°35'0 0.0
2017-Nov-19 05:26N 37°57' E 023°35'0 0.0
2017-Nov-19 04:56N 37°57' E 023°35'0 0.0
2017-Nov-19 04:26N 37°57' E 023°35'0 0.0
2017-Nov-19 03:56N 37°57' E 023°35'0 0.0
2017-Nov-19 03:26N 37°57' E 023°35'0 0.0
2017-Nov-19 02:56N 37°57' E 023°35'0 0.0
2017-Nov-19 02:20N 37°57' E 023°35'0 0.0
2017-Nov-19 01:50N 37°57' E 023°35'0 0.0
2017-Nov-19 01:26N 37°57' E 023°35'0 0.0
2017-Nov-19 00:56N 37°57' E 023°35'0 0.0
2017-Nov-19 00:26N 37°57' E 023°35'0 0.0
2017-Nov-18 23:50N 37°57' E 023°35'0 0.0
2017-Nov-18 23:20N 37°57' E 023°35'0 0.0
2017-Nov-18 22:56N 37°57' E 023°35'0 0.0
2017-Nov-18 22:26N 37°57' E 023°35'0 0.0
2017-Nov-18 21:38N 37°57' E 023°35'0 0.0
2017-Nov-18 21:26N 37°57' E 023°35'0 0.0
2017-Nov-18 20:56N 37°57' E 023°35'0 0.0
2017-Nov-18 20:20N 37°57' E 023°35'0 0.0
2017-Nov-18 19:56N 37°57' E 023°35'0 0.0
2017-Nov-18 19:26N 37°57' E 023°35'0 0.0
2017-Nov-18 18:56N 37°57' E 023°35'0 0.0
2017-Nov-18 18:26N 37°57' E 023°35'0 0.0
2017-Nov-18 17:56N 37°57' E 023°35'0 0.0
2017-Nov-18 17:26N 37°57' E 023°35'0 0.0
2017-Nov-18 16:56N 37°57' E 023°35'0 0.0
2017-Nov-18 16:26N 37°57' E 023°35'0 1.0
2017-Nov-18 16:01N 37°57' E 023°35'3 5.3
2017-Nov-18 15:31N 37°55' E 023°37'5 9.3
2017-Nov-18 15:01N 37°51' E 023°40'5 9.5
2017-Nov-18 14:30N 37°46' E 023°42'610.6
2017-Nov-18 13:59N 37°41' E 023°45'115 9.6
2017-Nov-18 01:59N 39°34' E 024°13'  
2017-Nov-14 11:36N 39°50' E 023°37'215.3
2017-Nov-14 11:28N 39°50' E 023°40'1315.2
2017-Nov-14 10:36N 39°51' E 023°57'115.1
2017-Nov-14 10:30N 39°51' E 023°59'714.7
2017-Nov-14 10:00N 39°53' E 024°08'714.6
2017-Nov-14 09:30N 39°55' E 024°17'1614.4
2017-Nov-14 08:23N 39°59' E 024°38'614.4
2017-Nov-14 08:00N 40°01' E 024°45'714.3
2017-Nov-14 07:30N 40°02' E 024°53'714.2
2017-Nov-14 07:00N 40°04' E 025°02'814.1
2017-Nov-14 06:24N 40°06' E 025°13'614.1
2017-Nov-14 06:00N 40°07' E 025°21'714.4
2017-Nov-14 05:30N 40°06' E 025°30'  
Track history (hours):
 
Tides and Currents Weather Stations Pressure Air Temp Water Temp Dewpoint Dewpoint Depression Visibility Wind Speed Wind Dir Waves Ship Positions

Max Strength

Last reported at 2017-Nov-19 14:01 UTC. Time now 2017-Nov-20 02:21 UTC.
Position N 37°17' E 023°39'.

Length 127 m; draft 6 m.

Type: Ship. MMSI: 249033000.

Date/timePositionNaut miles runAvg speedWind from/ knotsBaromVisibWave heightAir tempDewpointWater temp
2017-Nov-19 14:01N 37°17' E 023°39'013.5
2017-Nov-19 14:00N 37°17' E 023°39'812.9
2017-Nov-19 13:23N 37°25' E 023°40'612.7
2017-Nov-19 12:53N 37°31' E 023°41'513.0
2017-Nov-19 12:28N 37°37' E 023°42'612.4
2017-Nov-19 12:00N 37°42' E 023°41'612.9
2017-Nov-19 11:30N 37°48' E 023°37'612.7
2017-Nov-19 11:00N 37°54' E 023°37'3 5.9
2017-Nov-19 10:30N 37°57' E 023°35'0 0.4
2017-Nov-19 09:56N 37°57' E 023°35'0 0.0
2017-Nov-19 09:26N 37°57' E 023°35'0 0.0
2017-Nov-19 08:56N 37°57' E 023°35'0 0.0
2017-Nov-19 08:26N 37°57' E 023°35'0 0.0
2017-Nov-19 07:56N 37°57' E 023°35'0 0.0
2017-Nov-19 07:26N 37°57' E 023°35'0 0.0
2017-Nov-19 06:56N 37°57' E 023°35'0 0.0
2017-Nov-19 06:26N 37°57' E 023°35'0 0.0
2017-Nov-19 05:56N 37°57' E 023°35'0 0.0
2017-Nov-19 05:26N 37°57' E 023°35'0 0.0
2017-Nov-19 04:56N 37°57' E 023°35'0 0.0
2017-Nov-19 04:26N 37°57' E 023°35'0 0.0
2017-Nov-19 03:56N 37°57' E 023°35'0 0.0
2017-Nov-19 03:26N 37°57' E 023°35'0 0.0
2017-Nov-19 02:56N 37°57' E 023°35'0 0.0
2017-Nov-19 02:20N 37°57' E 023°35'0 0.0
2017-Nov-19 01:50N 37°57' E 023°35'0 0.0
2017-Nov-19 01:26N 37°57' E 023°35'0 0.0
2017-Nov-19 00:56N 37°57' E 023°35'0 0.0
2017-Nov-19 00:26N 37°57' E 023°35'0 0.0
2017-Nov-18 23:50N 37°57' E 023°35'0 0.0
2017-Nov-18 23:20N 37°57' E 023°35'0 0.0
2017-Nov-18 22:56N 37°57' E 023°35'0 0.0
2017-Nov-18 22:26N 37°57' E 023°35'0 0.0
2017-Nov-18 21:38N 37°57' E 023°35'0 0.0
2017-Nov-18 21:26N 37°57' E 023°35'0 0.0
2017-Nov-18 20:56N 37°57' E 023°35'0 0.0
2017-Nov-18 20:20N 37°57' E 023°35'0 0.0
2017-Nov-18 19:56N 37°57' E 023°35'0 0.0
2017-Nov-18 19:26N 37°57' E 023°35'0 0.0
2017-Nov-18 18:56N 37°57' E 023°35'0 0.0
2017-Nov-18 18:26N 37°57' E 023°35'0 0.0
2017-Nov-18 17:56N 37°57' E 023°35'0 0.0
2017-Nov-18 17:26N 37°57' E 023°35'0 0.0
2017-Nov-18 16:56N 37°57' E 023°35'0 0.0
2017-Nov-18 16:26N 37°57' E 023°35'0 1.0
2017-Nov-18 16:01N 37°57' E 023°35'3 5.3
2017-Nov-18 15:31N 37°55' E 023°37'5 9.3
2017-Nov-18 15:01N 37°51' E 023°40'5 9.5
2017-Nov-18 14:30N 37°46' E 023°42'610.6
2017-Nov-18 13:59N 37°41' E 023°45'115 9.6
2017-Nov-18 01:59N 39°34' E 024°13'  
2017-Nov-14 11:36N 39°50' E 023°37'215.3
2017-Nov-14 11:28N 39°50' E 023°40'1315.2
2017-Nov-14 10:36N 39°51' E 023°57'115.1
2017-Nov-14 10:30N 39°51' E 023°59'714.7
2017-Nov-14 10:00N 39°53' E 024°08'714.6
2017-Nov-14 09:30N 39°55' E 024°17'1614.4
2017-Nov-14 08:23N 39°59' E 024°38'614.4
2017-Nov-14 08:00N 40°01' E 024°45'714.3
2017-Nov-14 07:30N 40°02' E 024°53'714.2
2017-Nov-14 07:00N 40°04' E 025°02'814.1
2017-Nov-14 06:24N 40°06' E 025°13'614.1
2017-Nov-14 06:00N 40°07' E 025°21'714.4
2017-Nov-14 05:30N 40°06' E 025°30'  

Dump ship's entire track history